Time;durP1;ratioP1;P1;durP2;ratioP2;P2;SDS_P1;SDS_P2;PMS_P1;PMS_P2;Temp;Humidity;BMP_temperature;BMP_pressure;BME280_temperature;BME280_humidity;BME280_pressure;Samples;Min_cycle;Max_cycle;Signal;HPM_P1;HPM_P2
2022/02/17 00:03:58;;;;;;;0.17;0.17;;;;;;;;;;10467565;28;20041;-71
2022/02/17 00:09:01;;;;;;;0.05;0.05;;;;;;;;;;10456099;28;20203;-71
2022/02/17 00:14:04;;;;;;;0.13;0.13;;;;;;;;;;10458993;28;20483;-73
2022/02/17 00:19:09;;;;;;;1.03;0.20;;;;;;;;;;10454996;28;20143;-73
2022/02/17 00:24:12;;;;;;;0.10;0.10;;;;;;;;;;10475189;28;20043;-74
2022/02/17 00:29:15;;;;;;;0.30;0.10;;;;;;;;;;10452722;28;20763;-75
2022/02/17 00:34:20;;;;;;;0.55;0.10;;;;;;;;;;10452846;28;20041;-73
2022/02/17 00:39:23;;;;;;;0.10;0.10;;;;;;;;;;10453646;28;20110;-72
2022/02/17 00:44:26;;;;;;;0.03;0.03;;;;;;;;;;10490247;28;20039;-72
2022/02/17 00:49:30;;;;;;;;;;;;;;;;;;10495301;28;20043;-71
2022/02/17 00:54:34;;;;;;;0.20;0.20;;;;;;;;;;10518706;28;19924;-74
2022/02/17 00:59:37;;;;;;;0.10;0.05;;;;;;;;;;10496497;28;20051;-75
2022/02/17 01:04:40;;;;;;;0.15;0.15;;;;;;;;;;10495772;28;20039;-74
2022/02/17 01:09:45;;;;;;;0.00;0.00;;;;;;;;;;10496249;28;20051;-74
2022/02/17 01:14:48;;;;;;;0.10;0.10;;;;;;;;;;10511228;28;20054;-73
2022/02/17 01:19:53;;;;;;;0.63;0.15;;;;;;;;;;10515810;28;20040;-74
2022/02/17 01:24:58;;;;;;;0.45;0.10;;;;;;;;;;10491786;28;20101;-74
2022/02/17 01:30:01;;;;;;;0.90;0.20;;;;;;;;;;10493232;28;20138;-73
2022/02/17 01:35:05;;;;;;;0.30;0.10;;;;;;;;;;10510741;28;20468;-72
2022/02/17 01:40:13;;;;;;;0.10;0.10;;;;;;;;;;10493337;28;20036;-73
2022/02/17 01:45:16;;;;;;;0.10;0.10;;;;;;;;;;10497539;28;20160;-72
2022/02/17 01:50:19;;;;;;;0.23;0.23;;;;;;;;;;10491651;28;20420;-69
2022/02/17 01:55:24;;;;;;;0.10;0.10;;;;;;;;;;10485350;28;20303;-68
2022/02/17 02:00:27;;;;;;;0.10;0.10;;;;;;;;;;10524180;28;20036;-68
2022/02/17 02:05:30;;;;;;;0.00;0.00;;;;;;;;;;10499218;28;20207;-70
2022/02/17 02:10:37;;;;;;;0.10;0.10;;;;;;;;;;10518091;28;20041;-67
2022/02/17 02:15:45;;;;;;;0.20;0.20;;;;;;;;;;10500397;28;20417;-68
2022/02/17 02:20:54;;;;;;;0.10;0.10;;;;;;;;;;10499978;28;20389;-69
2022/02/17 02:25:58;;;;;;;0.10;0.10;;;;;;;;;;10498350;22;20036;-79
2022/02/17 02:31:02;;;;;;;0.22;0.22;;;;;;;;;;10451042;28;20911;-78
2022/02/17 02:36:07;;;;;;;0.20;0.17;;;;;;;;;;10431597;28;20041;-80
2022/02/17 02:41:30;;;;;;;0.10;0.10;;;;;;;;;;10460185;28;20137;-80
2022/02/17 02:46:33;;;;;;;0.20;0.10;;;;;;;;;;10463548;28;20868;-80
2022/02/17 02:51:37;;;;;;;0.73;0.10;;;;;;;;;;10444942;28;20041;-79
2022/02/17 02:56:41;;;;;;;0.00;0.00;;;;;;;;;;10458493;28;20040;-80
2022/02/17 03:01:44;;;;;;;0.08;0.00;;;;;;;;;;10446313;28;20123;-79
2022/02/17 03:06:48;;;;;;;0.40;0.10;;;;;;;;;;10463052;28;20020;-78
2022/02/17 03:11:51;;;;;;;0.00;0.00;;;;;;;;;;10501901;28;20036;-79
2022/02/17 03:16:54;;;;;;;0.10;0.10;;;;;;;;;;10487652;28;20037;-81
2022/02/17 03:21:59;;;;;;;0.00;0.00;;;;;;;;;;10483339;28;20051;-82
2022/02/17 03:27:04;;;;;;;0.65;0.10;;;;;;;;;;10483130;28;20082;-80
2022/02/17 03:32:11;;;;;;;0.10;0.10;;;;;;;;;;10485558;28;20120;-78
2022/02/17 03:37:15;;;;;;;0.08;0.08;;;;;;;;;;10467399;28;20041;-76
2022/02/17 03:42:19;;;;;;;0.00;0.00;;;;;;;;;;10470717;28;20048;-80
2022/02/17 03:47:22;;;;;;;2.10;0.17;;;;;;;;;;10456297;28;20071;-79
2022/02/17 03:52:28;;;;;;;0.10;0.10;;;;;;;;;;10476458;28;20238;-79
2022/02/17 03:57:31;;;;;;;0.40;0.10;;;;;;;;;;10459175;28;20072;-78
2022/02/17 04:02:34;;;;;;;0.10;0.10;;;;;;;;;;10468443;28;20516;-77
2022/02/17 04:07:40;;;;;;;0.00;0.00;;;;;;;;;;10453240;28;20298;-78
2022/02/17 04:12:46;;;;;;;0.00;0.00;;;;;;;;;;10465987;28;20033;-78
2022/02/17 04:17:48;;;;;;;0.00;0.00;;;;;;;;;;10453418;28;20048;-78
2022/02/17 04:22:54;;;;;;;0.25;0.17;;;;;;;;;;10450651;28;20105;-77
2022/02/17 04:27:56;;;;;;;0.00;0.00;;;;;;;;;;10464009;28;20045;-80
2022/02/17 04:33:01;;;;;;;0.35;0.20;;;;;;;;;;10463043;28;20106;-81
2022/02/17 04:38:07;;;;;;;0.20;0.10;;;;;;;;;;10480214;28;20033;-80
2022/02/17 04:43:10;;;;;;;0.85;0.20;;;;;;;;;;10479755;28;20586;-80
2022/02/17 04:48:17;;;;;;;0.10;0.10;;;;;;;;;;10465039;28;20029;-80
2022/02/17 04:53:22;;;;;;;0.00;0.00;;;;;;;;;;10458733;28;20749;-80
2022/02/17 04:58:26;;;;;;;0.10;0.03;;;;;;;;;;10454000;28;20060;-80
2022/02/17 05:03:29;;;;;;;0.00;0.00;;;;;;;;;;10458272;28;20103;-81
2022/02/17 05:08:33;;;;;;;0.00;0.00;;;;;;;;;;10474528;28;20478;-82
2022/02/17 05:13:36;;;;;;;;;;;;;;;;;;10465376;28;20052;-82
2022/02/17 05:18:40;;;;;;;0.35;0.10;;;;;;;;;;10499712;28;20000;-87
2022/02/17 05:23:43;;;;;;;;;;;;;;;;;;10477921;28;20033;-84
2022/02/17 05:28:48;;;;;;;0.68;0.22;;;;;;;;;;10495505;28;19984;-84
2022/02/17 05:33:51;;;;;;;0.40;0.17;;;;;;;;;;10464072;28;20045;-86
2022/02/17 05:38:56;;;;;;;0.22;0.17;;;;;;;;;;10478803;28;20100;-82
2022/02/17 05:44:02;;;;;;;0.17;0.10;;;;;;;;;;10459051;28;20456;-82
2022/02/17 05:49:05;;;;;;;0.03;0.03;;;;;;;;;;10475269;28;20071;-83
2022/02/17 05:54:08;;;;;;;0.03;0.03;;;;;;;;;;10451217;28;20053;-81
2022/02/17 05:59:12;;;;;;;0.50;0.10;;;;;;;;;;10447630;28;20069;-79
2022/02/17 06:04:15;;;;;;;0.05;0.05;;;;;;;;;;10475975;28;20104;-79
2022/02/17 06:09:19;;;;;;;0.03;0.03;;;;;;;;;;10438691;28;20457;-79
2022/02/17 06:14:23;;;;;;;0.10;0.10;;;;;;;;;;10441573;28;20044;-79
2022/02/17 06:19:28;;;;;;;0.47;0.20;;;;;;;;;;10450758;28;20028;-82
2022/02/17 06:24:32;;;;;;;0.85;0.20;;;;;;;;;;10447638;28;20208;-80
2022/02/17 06:29:41;;;;;;;;;;;;;;;;;;10481342;28;20414;-80
2022/02/17 06:34:45;;;;;;;0.00;0.00;;;;;;;;;;10458465;28;20024;-81
2022/02/17 06:39:48;;;;;;;;;;;;;;;;;;10442308;28;20049;-81
2022/02/17 06:44:50;;;;;;;;;;;;;;;;;;10437547;28;19929;-78
2022/02/17 06:49:55;;;;;;;0.45;0.08;;;;;;;;;;10480935;28;20221;-81
2022/02/17 06:54:58;;;;;;;;;;;;;;;;;;10458361;28;20105;-83
2022/02/17 07:00:03;;;;;;;0.32;0.00;;;;;;;;;;10450934;28;19925;-81
2022/02/17 07:05:29;;;;;;;0.10;0.10;;;;;;;;;;10459357;28;20044;-81
2022/02/17 07:15:53;;;;;;;0.52;0.20;;;;;;;;;;10466081;28;20087;-81
2022/02/17 07:21:00;;;;;;;0.05;0.05;;;;;;;;;;10479489;28;20067;-81
2022/02/17 07:26:03;;;;;;;;;;;;;;;;;;10478403;28;20088;-79
2022/02/17 07:31:07;;;;;;;;;;;;;;;;;;10467039;28;19924;-81
2022/02/17 07:36:11;;;;;;;0.10;0.10;;;;;;;;;;10450574;28;19924;-79
2022/02/17 07:41:23;;;;;;;;;;;;;;;;;;10435989;28;20532;-77
2022/02/17 07:46:27;;;;;;;0.20;0.20;;;;;;;;;;10462909;28;19921;-79
2022/02/17 07:51:32;;;;;;;0.10;0.10;;;;;;;;;;10444490;28;20083;-79
2022/02/17 07:56:37;;;;;;;0.35;0.35;;;;;;;;;;10470788;28;20029;-81
2022/02/17 08:01:41;;;;;;;0.20;0.20;;;;;;;;;;10478674;28;20056;-79
2022/02/17 08:06:45;;;;;;;0.10;0.10;;;;;;;;;;10473133;28;20086;-80
2022/02/17 08:11:48;;;;;;;0.32;0.15;;;;;;;;;;10452666;28;20295;-80
2022/02/17 08:16:54;;;;;;;2.47;0.30;;;;;;;;;;10483437;28;20029;-78
2022/02/17 08:22:01;;;;;;;0.15;0.15;;;;;;;;;;10473306;28;20052;-72
2022/02/17 08:27:04;;;;;;;;;;;;;;;;;;10480483;28;20052;-79
2022/02/17 08:32:07;;;;;;;0.00;0.00;;;;;;;;;;10494669;28;19923;-78
2022/02/17 08:37:12;;;;;;;0.10;0.10;;;;;;;;;;10462352;28;20029;-79
2022/02/17 08:42:14;;;;;;;0.43;0.10;;;;;;;;;;10486011;28;20045;-78
2022/02/17 08:47:19;;;;;;;0.00;0.00;;;;;;;;;;10465598;28;20043;-79
2022/02/17 08:52:24;;;;;;;0.45;0.13;;;;;;;;;;10453408;28;20031;-80
2022/02/17 08:57:27;;;;;;;0.22;0.22;;;;;;;;;;10441114;28;20041;-78
2022/02/17 09:02:30;;;;;;;0.17;0.13;;;;;;;;;;10437942;28;20044;-79
2022/02/17 09:07:35;;;;;;;0.15;0.15;;;;;;;;;;10459415;28;20112;-80
2022/02/17 09:12:38;;;;;;;0.08;0.08;;;;;;;;;;10471329;28;20485;-79
2022/02/17 09:17:42;;;;;;;;;;;;;;;;;;10469690;28;20133;-79
2022/02/17 09:22:46;;;;;;;0.30;0.30;;;;;;;;;;10471694;28;19996;-80
2022/02/17 09:27:49;;;;;;;0.45;0.10;;;;;;;;;;10477918;28;20380;-79
2022/02/17 09:32:52;;;;;;;1.00;0.30;;;;;;;;;;10478960;28;20052;-79
2022/02/17 09:37:57;;;;;;;0.28;0.15;;;;;;;;;;10469120;28;20076;-80
2022/02/17 09:43:00;;;;;;;0.20;0.20;;;;;;;;;;10461720;28;20055;-79
2022/02/17 09:48:05;;;;;;;0.10;0.05;;;;;;;;;;10482496;28;20041;-80
2022/02/17 09:53:09;;;;;;;0.10;0.10;;;;;;;;;;10475973;28;20037;-79
2022/02/17 09:58:15;;;;;;;1.17;0.35;;;;;;;;;;10486657;28;20059;-81
2022/02/17 10:03:20;;;;;;;0.20;0.10;;;;;;;;;;10473964;28;20053;-79
2022/02/17 10:08:25;;;;;;;0.00;0.00;;;;;;;;;;10496706;28;20048;-78
2022/02/17 10:13:28;;;;;;;0.10;0.10;;;;;;;;;;10492058;28;20056;-80
2022/02/17 10:18:31;;;;;;;0.98;0.30;;;;;;;;;;10476681;28;20033;-79
2022/02/17 10:23:40;;;;;;;3.75;0.82;;;;;;;;;;10502088;28;20044;-79
2022/02/17 10:28:45;;;;;;;3.90;0.75;;;;;;;;;;10465878;28;20128;-82
2022/02/17 10:33:52;;;;;;;1.05;0.55;;;;;;;;;;10485196;28;20108;-81
2022/02/17 10:39:07;;;;;;;1.67;0.60;;;;;;;;;;10481006;28;20036;-80
2022/02/17 10:44:10;;;;;;;1.20;0.50;;;;;;;;;;10477469;28;20049;-80
2022/02/17 10:49:14;;;;;;;1.83;1.00;;;;;;;;;;10463403;28;20089;-79
2022/02/17 10:54:21;;;;;;;1.92;0.70;;;;;;;;;;10454636;28;20036;-79
2022/02/17 11:04:54;;;;;;;2.28;0.80;;;;;;;;;;10469732;28;20540;-79
2022/02/17 11:10:00;;;;;;;2.40;1.17;;;;;;;;;;10469903;28;20048;-80
2022/02/17 11:15:05;;;;;;;2.20;0.38;;;;;;;;;;10471876;28;20100;-79
2022/02/17 11:20:11;;;;;;;1.70;0.70;;;;;;;;;;10459800;28;20063;-80
2022/02/17 11:25:16;;;;;;;1.08;0.77;;;;;;;;;;10481274;28;20107;-80
2022/02/17 11:30:27;;;;;;;3.45;0.77;;;;;;;;;;10453712;28;20056;-80
2022/02/17 11:35:31;;;;;;;1.02;0.47;;;;;;;;;;10446718;28;20052;-81
2022/02/17 11:40:55;;;;;;;2.33;0.60;;;;;;;;;;10484597;28;20075;-80
2022/02/17 11:45:59;;;;;;;2.38;0.95;;;;;;;;;;10482550;28;20063;-82
2022/02/17 11:51:12;;;;;;;2.10;0.68;;;;;;;;;;10495163;28;20033;-82
2022/02/17 11:56:36;;;;;;;1.83;0.50;;;;;;;;;;10463647;28;20396;-81
2022/02/17 12:01:44;;;;;;;2.50;1.00;;;;;;;;;;10440965;28;20033;-80
2022/02/17 12:07:28;;;;;;;1.95;1.10;;;;;;;;;;10459448;28;20044;-79
2022/02/17 12:12:41;;;;;;;0.93;0.60;;;;;;;;;;10454997;28;20033;-78
2022/02/17 12:17:47;;;;;;;3.50;1.08;;;;;;;;;;10450653;28;20040;-79
2022/02/17 12:22:52;;;;;;;1.85;0.73;;;;;;;;;;10446337;28;20057;-80
2022/02/17 12:27:56;;;;;;;3.33;1.65;;;;;;;;;;10472165;28;20043;-79
2022/02/17 12:33:17;;;;;;;5.40;0.80;;;;;;;;;;10434363;28;20045;-80
2022/02/17 12:38:23;;;;;;;2.00;0.73;;;;;;;;;;10475894;28;20104;-80
2022/02/17 12:43:30;;;;;;;3.67;0.70;;;;;;;;;;10455615;28;20029;-78
2022/02/17 12:48:36;;;;;;;4.13;0.95;;;;;;;;;;10468953;28;20045;-79
2022/02/17 12:54:00;;;;;;;2.80;1.00;;;;;;;;;;10445738;28;20110;-79
2022/02/17 12:59:04;;;;;;;4.47;1.23;;;;;;;;;;10467976;28;20041;-78
2022/02/17 13:04:09;;;;;;;3.95;1.08;;;;;;;;;;10459526;28;20099;-77
2022/02/17 13:09:15;;;;;;;3.90;0.98;;;;;;;;;;10483769;28;20126;-78
2022/02/17 13:14:19;;;;;;;3.63;1.27;;;;;;;;;;10488272;28;20066;-78
2022/02/17 13:19:34;;;;;;;4.78;1.05;;;;;;;;;;10493985;28;20051;-78
2022/02/17 13:25:00;;;;;;;2.42;1.05;;;;;;;;;;10455592;28;20048;-79
2022/02/17 13:30:05;;;;;;;4.28;0.93;;;;;;;;;;10466926;28;20058;-77
2022/02/17 13:35:10;;;;;;;2.95;1.00;;;;;;;;;;10465931;28;20124;-77
2022/02/17 13:40:16;;;;;;;1.02;0.60;;;;;;;;;;10474524;28;20044;-78
2022/02/17 13:45:19;;;;;;;1.30;0.68;;;;;;;;;;10475240;28;20056;-77
2022/02/17 13:50:23;;;;;;;1.45;0.65;;;;;;;;;;10502408;28;20120;-78
2022/02/17 13:55:29;;;;;;;5.97;1.00;;;;;;;;;;10479234;28;20072;-79
2022/02/17 14:00:37;;;;;;;3.67;1.25;;;;;;;;;;10497367;28;20100;-78
2022/02/17 14:05:41;;;;;;;4.35;0.77;;;;;;;;;;10496316;28;20642;-78
2022/02/17 14:10:46;;;;;;;3.53;1.13;;;;;;;;;;10478035;28;20056;-80
2022/02/17 14:15:49;;;;;;;2.67;0.98;;;;;;;;;;10480240;28;20039;-78
2022/02/17 14:20:52;;;;;;;2.63;0.97;;;;;;;;;;10482279;28;20056;-79
2022/02/17 14:25:56;;;;;;;4.17;0.70;;;;;;;;;;10502740;28;20040;-78
2022/02/17 14:30:59;;;;;;;3.08;1.05;;;;;;;;;;10494584;28;20029;-79
2022/02/17 14:36:02;;;;;;;3.77;0.80;;;;;;;;;;10487868;28;20124;-79
2022/02/17 14:41:06;;;;;;;3.77;1.03;;;;;;;;;;10477015;28;20104;-80
2022/02/17 14:46:09;;;;;;;3.10;0.90;;;;;;;;;;10470654;28;20366;-79
2022/02/17 14:51:12;;;;;;;3.53;1.30;;;;;;;;;;10489235;28;20025;-79
2022/02/17 14:56:18;;;;;;;3.77;1.17;;;;;;;;;;10474055;28;20036;-81
2022/02/17 15:01:21;;;;;;;;;;;;;;;;;;10483641;28;20032;-78
2022/02/17 15:06:26;;;;;;;;;;;;;;;;;;10490808;28;19925;-80
2022/02/17 15:11:31;;;;;;;7.78;1.42;;;;;;;;;;10491915;28;19935;-79
2022/02/17 15:16:34;;;;;;;;;;;;;;;;;;10483827;28;20041;-78
2022/02/17 15:21:37;;;;;;;;;;;;;;;;;;10477066;28;20000;-79
2022/02/17 15:26:40;;;;;;;;;;;;;;;;;;10488556;28;19919;-80
2022/02/17 15:31:43;;;;;;;;;;;;;;;;;;10491767;28;19925;-79
2022/02/17 15:36:46;;;;;;;;;;;;;;;;;;10481397;28;19922;-79
2022/02/17 15:41:51;;;;;;;6.22;1.40;;;;;;;;;;10479609;28;19909;-80
2022/02/17 15:46:54;;;;;;;1.55;0.63;;;;;;;;;;10460918;28;20125;-79
2022/02/17 15:51:57;;;;;;;0.75;0.38;;;;;;;;;;10464426;28;20116;-78
2022/02/17 15:57:02;;;;;;;4.22;1.20;;;;;;;;;;10468026;28;20067;-77
2022/02/17 16:02:04;;;;;;;;;;;;;;;;;;10448490;28;20033;-80
2022/02/17 16:07:07;;;;;;;;;;;;;;;;;;10458544;28;20281;-80
2022/02/17 16:12:10;;;;;;;;;;;;;;;;;;10438506;28;19946;-79
2022/02/17 16:17:14;;;;;;;;;;;;;;;;;;10467590;28;19990;-79
2022/02/17 16:22:19;;;;;;;;;;;;;;;;;;10455222;28;19937;-78
2022/02/17 16:27:22;;;;;;;;;;;;;;;;;;10436131;28;19924;-80
2022/02/17 16:32:25;;;;;;;;;;;;;;;;;;10446467;28;19943;-80
2022/02/17 16:37:28;;;;;;;;;;;;;;;;;;10456757;28;20402;-79
2022/02/17 16:42:30;;;;;;;;;;;;;;;;;;10461784;28;19974;-79
2022/02/17 16:47:35;;;;;;;;;;;;;;;;;;10433194;28;19925;-80
2022/02/17 16:52:37;;;;;;;;;;;;;;;;;;10449880;28;19939;-80
2022/02/17 16:57:40;;;;;;;;;;;;;;;;;;10472120;28;19982;-78
2022/02/17 17:02:43;;;;;;;;;;;;;;;;;;10478580;28;19920;-79
2022/02/17 17:07:45;;;;;;;;;;;;;;;;;;10456546;28;20387;-80
2022/02/17 17:12:48;;;;;;;;;;;;;;;;;;10470949;28;19991;-77
2022/02/17 17:17:56;;;;;;;;;;;;;;;;;;10462559;28;19908;-80
2022/02/17 17:22:59;;;;;;;;;;;;;;;;;;10456553;28;20425;-81
2022/02/17 17:28:03;;;;;;;;;;;;;;;;;;10457080;28;19969;-80
2022/02/17 17:33:06;;;;;;;;;;;;;;;;;;10485846;28;20312;-80
2022/02/17 17:38:09;;;;;;;;;;;;;;;;;;10467286;28;19935;-82
2022/02/17 17:43:12;;;;;;;;;;;;;;;;;;10489881;28;19990;-79
2022/02/17 17:48:15;;;;;;;;;;;;;;;;;;10464967;28;19920;-79
2022/02/17 17:53:18;;;;;;;;;;;;;;;;;;10490493;28;20047;-79
2022/02/17 17:58:21;;;;;;;;;;;;;;;;;;10467793;28;19916;-77
2022/02/17 18:03:25;;;;;;;;;;;;;;;;;;10475946;28;19921;-78
2022/02/17 18:08:27;;;;;;;;;;;;;;;;;;10463126;28;19916;-79
2022/02/17 18:13:30;;;;;;;;;;;;;;;;;;10458344;28;20160;-78
2022/02/17 18:18:33;;;;;;;;;;;;;;;;;;10484356;28;19932;-79
2022/02/17 18:23:36;;;;;;;;;;;;;;;;;;10463040;28;20022;-79
2022/02/17 18:28:39;;;;;;;;;;;;;;;;;;10449556;28;19950;-78
2022/02/17 18:33:44;;;;;;;;;;;;;;;;;;10479332;28;19936;-78
2022/02/17 18:38:47;;;;;;;;;;;;;;;;;;10455761;28;19928;-80
2022/02/17 18:43:50;;;;;;;;;;;;;;;;;;10487616;28;19982;-79
2022/02/17 18:48:53;;;;;;;;;;;;;;;;;;10472323;28;19924;-80
2022/02/17 18:53:55;;;;;;;;;;;;;;;;;;10463179;28;19925;-79
2022/02/17 18:58:58;;;;;;;;;;;;;;;;;;10495583;28;19933;-79
2022/02/17 19:04:00;;;;;;;;;;;;;;;;;;10474885;28;19921;-81
2022/02/17 19:09:04;;;;;;;;;;;;;;;;;;10490727;28;19921;-81
2022/02/17 19:14:06;;;;;;;;;;;;;;;;;;10484383;28;19975;-82
2022/02/17 19:19:10;;;;;;;;;;;;;;;;;;10486493;28;19917;-79
2022/02/17 19:24:15;;;;;;;11.05;1.52;;;;;;;;;;10487260;28;19927;-81
2022/02/17 19:29:18;;;;;;;11.57;2.40;;;;;;;;;;10476052;28;20065;-79
2022/02/17 19:34:22;;;;;;;5.73;1.23;;;;;;;;;;10486538;28;20122;-81
2022/02/17 19:39:28;;;;;;;5.53;1.45;;;;;;;;;;10498837;28;20024;-79
2022/02/17 19:44:31;;;;;;;8.35;1.45;;;;;;;;;;10488511;28;20036;-79
2022/02/17 19:49:34;;;;;;;7.77;1.23;;;;;;;;;;10444587;28;20059;-81
2022/02/17 19:54:38;;;;;;;2.78;1.23;;;;;;;;;;10477342;28;20307;-81
2022/02/17 19:59:41;;;;;;;2.83;0.98;;;;;;;;;;10491043;28;20064;-81
2022/02/17 20:04:44;;;;;;;9.63;1.90;;;;;;;;;;10465036;28;20067;-79
2022/02/17 20:09:47;;;;;;;;;;;;;;;;;;10451438;28;20101;-81
2022/02/17 20:14:55;;;;;;;10.90;2.30;;;;;;;;;;10462679;28;19921;-80
2022/02/17 20:20:00;;;;;;;1.80;0.70;;;;;;;;;;10461838;28;20127;-80
2022/02/17 20:25:07;;;;;;;6.82;1.60;;;;;;;;;;10466524;28;20127;-80
2022/02/17 20:30:13;;;;;;;8.73;1.45;;;;;;;;;;10460263;28;20064;-81
2022/02/17 20:35:16;;;;;;;2.38;0.68;;;;;;;;;;10478014;28;20100;-81
2022/02/17 20:40:21;;;;;;;6.70;1.70;;;;;;;;;;10468477;28;20977;-81
2022/02/17 21:01:29;;;;;;;5.13;1.45;;;;;;;;;;10459488;28;20091;-79
2022/02/17 21:06:33;;;;;;;5.95;0.93;;;;;;;;;;10453874;28;20138;-80
2022/02/17 21:11:37;;;;;;;0.82;0.57;;;;;;;;;;10458096;28;20036;-81
2022/02/17 21:16:42;;;;;;;4.85;1.00;;;;;;;;;;10459081;28;20116;-80
2022/02/17 21:21:47;;;;;;;2.80;1.10;;;;;;;;;;10460854;28;20032;-82
2022/02/17 21:26:50;;;;;;;1.73;1.03;;;;;;;;;;10485090;28;20041;-80
2022/02/17 21:31:55;;;;;;;9.63;1.50;;;;;;;;;;10475329;28;20044;-77
2022/02/17 21:36:58;;;;;;;13.52;2.05;;;;;;;;;;10485057;28;20425;-81
2022/02/17 21:42:01;;;;;;;11.88;1.98;;;;;;;;;;10462119;28;20462;-81
2022/02/17 21:47:04;;;;;;;;;;;;;;;;;;10476067;28;20056;-81
2022/02/17 21:52:07;;;;;;;;;;;;;;;;;;10472678;28;20363;-79
2022/02/17 21:57:10;;;;;;;;;;;;;;;;;;10468157;28;20023;-79
2022/02/17 22:02:12;;;;;;;;;;;;;;;;;;10457308;28;19932;-80
2022/02/17 22:07:15;;;;;;;;;;;;;;;;;;10427303;28;19925;-81
2022/02/17 22:12:18;;;;;;;;;;;;;;;;;;10501919;28;19920;-81
2022/02/17 22:17:21;;;;;;;;;;;;;;;;;;10482736;28;20368;-80
2022/02/17 22:22:23;;;;;;;;;;;;;;;;;;10469755;28;19975;-82
2022/02/17 22:27:28;;;;;;;6.30;1.73;;;;;;;;;;10474202;28;19931;-80
2022/02/17 22:32:31;;;;;;;3.42;1.30;;;;;;;;;;10470889;28;20059;-79
2022/02/17 22:37:37;;;;;;;7.03;1.33;;;;;;;;;;10464109;28;20040;-79
2022/02/17 22:42:42;;;;;;;12.18;1.90;;;;;;;;;;10466051;28;20043;-81
2022/02/17 22:47:45;;;;;;;4.20;1.17;;;;;;;;;;10490558;28;20040;-80
2022/02/17 22:52:47;;;;;;;;;;;;;;;;;;10475235;28;20167;-80
2022/02/17 22:57:50;;;;;;;;;;;;;;;;;;10477334;28;19924;-77
2022/02/17 23:02:53;;;;;;;;;;;;;;;;;;10479226;28;19939;-78
2022/02/17 23:13:16;;;;;;;;;;;;;;;;;;10454542;28;19929;-77
2022/02/17 23:23:40;;;;;;;;;;;;;;;;;;10496035;28;19999;-78
2022/02/17 23:28:42;;;;;;;;;;;;;;;;;;10491579;28;19929;-78
2022/02/17 23:33:45;;;;;;;;;;;;;;;;;;10461114;28;19929;-78
2022/02/17 23:38:48;;;;;;;;;;;;;;;;;;10462188;28;19929;-77
2022/02/17 23:43:51;;;;;;;;;;;;;;;;;;10451194;28;20019;-80
2022/02/17 23:48:54;;;;;;;;;;;;;;;;;;10442088;28;19921;-80
2022/02/17 23:53:57;;;;;;;;;;;;;;;;;;10463303;28;19944;-80
2022/02/17 23:58:59;;;;;;;;;;;;;;;;;;10458748;28;19920;-80
